Sv.knyaz Vladimir — UBKI2 — position and weather

sailwx.info

Track history (hours):
 
Tides and Currents Weather Stations Pressure Air Temp Water Temp Dewpoint Dewpoint Depression Visibility Wind Speed Wind Dir Waves Ship Positions

Sv.knyaz Vladimir

Last reported at 2017-Mar-26 23:07 UTC. Time now 2017-Mar-27 02:56 UTC.
Position N 45°06' E 036°34'.

Length 128 m; draft 3.7 m.

Type: Cargo ship. MMSI: 273350360.

Date/timePositionNaut miles runAvg speedWind from/ knotsBaromVisibWave heightAir tempDewpointWater temp
2017-Mar-26 23:07N 45°06' E 036°34'0 0.0
2017-Mar-26 18:25N 45°06' E 036°34'0 0.0
2017-Mar-26 13:28N 45°06' E 036°34'0 0.1
2017-Mar-26 12:31N 45°06' E 036°34'0 0.0
2017-Mar-26 10:31N 45°06' E 036°34'0 0.0
2017-Mar-26 08:10N 45°06' E 036°34'1 2.3
2017-Mar-26 07:33N 45°07' E 036°32'8 7.9
2017-Mar-26 06:33N 45°15' E 036°28'8 7.6
2017-Mar-26 05:33N 45°20' E 036°36'7 7.4
2017-Mar-26 04:33N 45°27' E 036°40'2 2.0
2017-Mar-26 03:31N 45°29' E 036°38'0 0.0
2017-Mar-26 02:31N 45°29' E 036°39'0 0.0
2017-Mar-26 01:31N 45°29' E 036°39'0 0.0
2017-Mar-26 00:28N 45°29' E 036°39'0 0.0
2017-Mar-25 23:31N 45°29' E 036°39'0 0.0
2017-Mar-25 22:31N 45°29' E 036°39'0 0.0
2017-Mar-25 21:28N 45°29' E 036°39'0 0.0
2017-Mar-25 20:31N 45°29' E 036°39'0 0.0
2017-Mar-25 19:31N 45°29' E 036°39'1 1.1
2017-Mar-25 18:33N 45°29' E 036°39'8 7.8
2017-Mar-25 17:33N 45°35' E 036°47'  
2017-Mar-20 22:33N 45°32' E 036°50'9 8.8
2017-Mar-20 21:33N 45°25' E 036°42'8 7.8
2017-Mar-20 20:33N 45°20' E 036°34'7 7.1
2017-Mar-20 19:33N 45°14' E 036°29'4 3.1
2017-Mar-20 18:15N 45°10' E 036°32'0 0.0
2017-Mar-20 15:18N 45°10' E 036°32'0 0.0
2017-Mar-20 12:33N 45°10' E 036°32'2 0.5
2017-Mar-20 08:33N 45°09' E 036°31'  
Track history (hours):
 
Tides and Currents Weather Stations Pressure Air Temp Water Temp Dewpoint Dewpoint Depression Visibility Wind Speed Wind Dir Waves Ship Positions

Sv.knyaz Vladimir

Last reported at 2017-Mar-26 23:07 UTC. Time now 2017-Mar-27 02:56 UTC.
Position N 45°06' E 036°34'.

Length 128 m; draft 3.7 m.

Type: Cargo ship. MMSI: 273350360.

Date/timePositionNaut miles runAvg speedWind from/ knotsBaromVisibWave heightAir tempDewpointWater temp
2017-Mar-26 23:07N 45°06' E 036°34'0 0.0
2017-Mar-26 18:25N 45°06' E 036°34'0 0.0
2017-Mar-26 13:28N 45°06' E 036°34'0 0.1
2017-Mar-26 12:31N 45°06' E 036°34'0 0.0
2017-Mar-26 10:31N 45°06' E 036°34'0 0.0
2017-Mar-26 08:10N 45°06' E 036°34'1 2.3
2017-Mar-26 07:33N 45°07' E 036°32'8 7.9
2017-Mar-26 06:33N 45°15' E 036°28'8 7.6
2017-Mar-26 05:33N 45°20' E 036°36'7 7.4
2017-Mar-26 04:33N 45°27' E 036°40'2 2.0
2017-Mar-26 03:31N 45°29' E 036°38'0 0.0
2017-Mar-26 02:31N 45°29' E 036°39'0 0.0
2017-Mar-26 01:31N 45°29' E 036°39'0 0.0
2017-Mar-26 00:28N 45°29' E 036°39'0 0.0
2017-Mar-25 23:31N 45°29' E 036°39'0 0.0
2017-Mar-25 22:31N 45°29' E 036°39'0 0.0
2017-Mar-25 21:28N 45°29' E 036°39'0 0.0
2017-Mar-25 20:31N 45°29' E 036°39'0 0.0
2017-Mar-25 19:31N 45°29' E 036°39'1 1.1
2017-Mar-25 18:33N 45°29' E 036°39'8 7.8
2017-Mar-25 17:33N 45°35' E 036°47'  
2017-Mar-20 22:33N 45°32' E 036°50'9 8.8
2017-Mar-20 21:33N 45°25' E 036°42'8 7.8
2017-Mar-20 20:33N 45°20' E 036°34'7 7.1
2017-Mar-20 19:33N 45°14' E 036°29'4 3.1
2017-Mar-20 18:15N 45°10' E 036°32'0 0.0
2017-Mar-20 15:18N 45°10' E 036°32'0 0.0
2017-Mar-20 12:33N 45°10' E 036°32'2 0.5
2017-Mar-20 08:33N 45°09' E 036°31'  

Dump ship's entire track history